Terminal Aerodrome Forecast
Issued by NWS

Home | Current Version | Previous Version | Text Only | Print | Product List | Glossary On
Versions: 1 2 3 4 5 6 7 8 9 10 11 12 13 14 15 16 17 18 19
000
FTUS41 KLWX 031332 AAA
TAFMTN
TAF AMD
KMTN 031332Z 0314/0412 03010KT 6SM -DZ BKN008 OVC015
     FM031500 05007KT P6SM OVC020
     FM032200 07005KT 4SM -RA OVC015
     FM040400 05006KT 4SM -RA BKN004 OVC008=

USA.gov is the U.S. government's official web portal to all federal, state and local government web resources and services.